Terminal Aerodrome Forecast
Issued by NWS Wilmington, OH

Current Version | Previous Version | Graphics & Text | Print | Product List | Glossary On
Versions: 1 2 3 4 5 6 7 8 9 10 11 12 13 14 15 16 17 18 19 20 21 22 23 24
000
FTUS41 KILN 250500
TAFCMH
TAF
KCMH 250522Z 2506/2606 16007KT P6SM BKN200
     FM251300 19016G23KT P6SM SCT050 BKN080
     FM252000 22016G24KT P6SM VCSH BKN050
     FM260100 19006KT P6SM BKN120=

USA.gov is the U.S. government's official web portal to all federal, state and local government web resources and services.